createdAt,value
2019-03-22T00:00:32.894Z,10.40
2019-03-22T00:03:01.281Z,9.10
2019-03-22T00:05:29.621Z,9.90
2019-03-22T00:07:57.990Z,9.50
2019-03-22T00:10:26.327Z,9.00
2019-03-22T00:12:54.553Z,10.37
2019-03-22T00:15:22.812Z,10.23
2019-03-22T00:17:51.109Z,9.40
2019-03-22T00:20:19.372Z,9.53
2019-03-22T00:22:47.673Z,11.50
2019-03-22T00:25:15.938Z,10.97
2019-03-22T00:27:44.168Z,10.43
2019-03-22T00:30:12.515Z,10.93
2019-03-22T00:32:40.741Z,9.43
2019-03-22T00:35:09.073Z,10.03
2019-03-22T00:37:37.373Z,10.97
2019-03-22T00:40:05.774Z,11.37
2019-03-22T00:42:34.110Z,10.23
2019-03-22T00:45:02.421Z,11.03
2019-03-22T00:47:30.685Z,10.87
2019-03-22T00:49:58.921Z,11.03
2019-03-22T00:52:27.267Z,10.07
2019-03-22T00:54:55.493Z,10.90
2019-03-22T00:57:28.430Z,9.73
2019-03-22T00:59:53.642Z,10.77
2019-03-22T01:02:21.901Z,11.23
2019-03-22T01:04:50.125Z,10.97
2019-03-22T01:07:18.454Z,11.43
2019-03-22T01:09:46.694Z,11.50
2019-03-22T01:12:14.983Z,11.43
2019-03-22T01:14:43.261Z,10.33
2019-03-22T01:17:11.516Z,10.10
2019-03-22T01:19:39.821Z,10.93
2019-03-22T01:22:08.085Z,11.60
2019-03-22T01:24:36.322Z,10.73
2019-03-22T01:27:04.661Z,11.00
2019-03-22T01:29:32.892Z,10.57
2019-03-22T01:32:01.194Z,10.63
2019-03-22T01:34:29.520Z,12.13
2019-03-22T01:36:57.767Z,11.97
2019-03-22T01:39:26.026Z,10.63
2019-03-22T01:41:54.315Z,12.07
2019-03-22T01:44:22.658Z,12.00
2019-03-22T01:46:50.966Z,11.40
2019-03-22T01:49:19.225Z,11.50
2019-03-22T01:51:47.453Z,10.73
2019-03-22T01:54:15.781Z,10.73
2019-03-22T01:56:45.642Z,11.87
2019-03-22T01:59:13.898Z,10.80
2019-03-22T02:01:42.204Z,11.73
2019-03-22T02:04:10.461Z,11.50
2019-03-22T02:06:38.692Z,10.63
2019-03-22T02:09:07.693Z,11.80
2019-03-22T02:11:35.917Z,11.27
2019-03-22T02:14:04.252Z,11.33
2019-03-22T02:16:32.475Z,12.10
2019-03-22T02:19:00.749Z,11.83
2019-03-22T02:21:29.037Z,13.20
2019-03-22T02:24:00.830Z,12.13
2019-03-22T02:26:31.515Z,13.13
2019-03-22T02:28:59.843Z,12.13
2019-03-22T02:31:28.142Z,12.50
2019-03-22T02:33:56.415Z,11.80
2019-03-22T02:36:24.630Z,12.30
2019-03-22T02:38:52.896Z,12.07
2019-03-22T02:41:21.119Z,12.20
2019-03-22T02:43:49.386Z,12.33
2019-03-22T02:46:17.674Z,12.80
2019-03-22T02:48:46.006Z,12.30
2019-03-22T02:51:14.297Z,11.43
2019-03-22T02:53:42.534Z,12.00
2019-03-22T02:56:10.970Z,11.97
2019-03-22T02:58:39.300Z,11.27
2019-03-22T03:01:07.568Z,11.33
2019-03-22T03:03:35.870Z,11.23
2019-03-22T03:06:04.217Z,11.83
2019-03-22T03:08:32.509Z,11.50
2019-03-22T03:11:00.842Z,12.23
2019-03-22T03:13:29.078Z,13.13
2019-03-22T03:15:57.338Z,11.57
2019-03-22T03:18:25.573Z,11.63
2019-03-22T03:20:53.842Z,11.83
2019-03-22T03:23:22.169Z,12.57
2019-03-22T03:25:50.375Z,13.33
2019-03-22T03:28:18.638Z,13.00
2019-03-22T03:30:46.882Z,13.63
2019-03-22T03:33:15.133Z,11.47
2019-03-22T03:35:43.366Z,11.90
2019-03-22T03:38:11.621Z,12.80
2019-03-22T03:40:39.921Z,12.00
2019-03-22T03:43:08.158Z,12.10
2019-03-22T03:45:36.916Z,12.70
2019-03-22T03:48:06.485Z,12.53
2019-03-22T03:50:34.829Z,13.80
2019-03-22T03:53:03.110Z,12.87
2019-03-22T03:55:31.376Z,12.83
2019-03-22T03:57:59.614Z,13.03
2019-03-22T04:00:28.045Z,13.77
2019-03-22T04:02:58.775Z,11.73
2019-03-22T04:05:27.093Z,14.80
2019-03-22T04:07:55.402Z,13.83
2019-03-22T04:10:23.736Z,13.73
2019-03-22T04:12:52.022Z,12.33
2019-03-22T04:15:20.437Z,11.47
2019-03-22T04:17:48.678Z,12.93
2019-03-22T04:20:16.944Z,11.87
2019-03-22T04:22:45.243Z,12.73
2019-03-22T04:25:13.505Z,12.43
2019-03-22T04:27:41.750Z,12.23
2019-03-22T04:30:10.093Z,11.20
2019-03-22T04:32:38.333Z,13.07
2019-03-22T04:35:06.720Z,12.93
2019-03-22T04:37:35.060Z,12.57
2019-03-22T04:40:04.828Z,11.70
2019-03-22T04:42:33.163Z,13.13
2019-03-22T04:45:01.461Z,14.23
2019-03-22T04:47:29.801Z,17.33
2019-03-22T04:49:58.399Z,15.00
2019-03-22T04:52:27.142Z,15.97
2019-03-22T04:54:57.129Z,14.53
2019-03-22T04:57:26.056Z,12.70
2019-03-22T04:59:54.664Z,13.63
2019-03-22T05:02:23.705Z,12.97
2019-03-22T05:04:52.103Z,12.33
2019-03-22T05:07:20.730Z,15.97
2019-03-22T05:09:49.729Z,14.27
2019-03-22T05:12:19.529Z,13.47
2019-03-22T05:14:47.837Z,14.27
2019-03-22T05:17:16.470Z,14.10
2019-03-22T05:19:46.244Z,13.13
2019-03-22T05:22:16.393Z,13.13
2019-03-22T05:24:46.393Z,12.53
2019-03-22T05:27:15.429Z,15.00
2019-03-22T05:29:45.425Z,14.13
2019-03-22T05:32:14.356Z,12.83
2019-03-22T05:34:42.658Z,12.53
2019-03-22T05:37:10.993Z,11.97
2019-03-22T05:39:39.289Z,13.47
2019-03-22T05:42:07.591Z,14.13
2019-03-22T05:44:35.938Z,12.53
2019-03-22T05:47:04.441Z,14.23
2019-03-22T05:49:32.791Z,13.27
2019-03-22T05:52:01.087Z,12.03
2019-03-22T05:54:29.353Z,12.40
2019-03-22T05:56:57.654Z,13.83
2019-03-22T05:59:25.917Z,14.07
2019-03-22T06:01:54.217Z,12.27
2019-03-22T06:04:22.484Z,12.30
2019-03-22T06:06:50.938Z,12.03
2019-03-22T06:09:19.289Z,12.23
2019-03-22T06:11:47.619Z,11.87
2019-03-22T06:14:17.845Z,10.90
2019-03-22T06:16:45.830Z,11.53
2019-03-22T06:19:14.061Z,11.10
2019-03-22T06:21:42.334Z,9.87
2019-03-22T06:24:10.625Z,9.80
2019-03-22T06:26:38.882Z,10.47
2019-03-22T06:29:07.182Z,9.63
2019-03-22T06:31:35.442Z,12.47
2019-03-22T06:34:03.786Z,12.03
2019-03-22T06:36:32.109Z,9.37
2019-03-22T06:39:00.404Z,8.33
2019-03-22T06:41:28.657Z,7.47
2019-03-22T06:43:56.889Z,7.73
2019-03-22T06:46:25.302Z,7.10
2019-03-22T06:48:53.708Z,6.50
2019-03-22T06:51:21.929Z,6.70
2019-03-22T06:53:50.197Z,6.20
2019-03-22T06:56:18.418Z,6.43
2019-03-22T06:58:46.748Z,6.43
2019-03-22T07:01:14.981Z,6.43
2019-03-22T07:03:43.233Z,6.40
2019-03-22T07:06:11.457Z,6.63
2019-03-22T07:08:39.722Z,6.20
2019-03-22T07:11:08.018Z,6.17
2019-03-22T07:13:36.274Z,6.10
2019-03-22T07:16:04.566Z,6.20
2019-03-22T07:18:32.826Z,6.13
2019-03-22T07:21:01.053Z,7.17
2019-03-22T07:23:29.320Z,7.03
2019-03-22T07:25:57.558Z,7.67
2019-03-22T07:28:25.786Z,7.80
2019-03-22T07:30:54.040Z,8.13
2019-03-22T07:33:22.265Z,7.20
2019-03-22T07:35:50.525Z,7.23
2019-03-22T07:38:18.822Z,7.50
2019-03-22T07:40:47.082Z,7.93
2019-03-22T07:43:16.650Z,7.87
2019-03-22T07:45:44.909Z,7.37
2019-03-22T07:48:13.142Z,7.60
2019-03-22T07:50:41.460Z,7.60
2019-03-22T07:53:09.701Z,7.70
2019-03-22T07:55:38.075Z,7.67
2019-03-22T07:58:06.391Z,7.73
2019-03-22T08:00:34.693Z,7.17
2019-03-22T08:03:03.016Z,7.63
2019-03-22T08:05:31.318Z,7.27
2019-03-22T08:07:59.582Z,7.70
2019-03-22T08:10:27.888Z,7.93
2019-03-22T08:12:56.155Z,7.20
2019-03-22T08:15:28.249Z,7.57
2019-03-22T08:17:57.268Z,7.20
2019-03-22T08:20:25.749Z,7.80
2019-03-22T08:22:54.076Z,7.87
2019-03-22T08:25:22.368Z,8.03
2019-03-22T08:27:50.626Z,7.80
2019-03-22T08:30:18.926Z,7.47
2019-03-22T08:32:47.226Z,8.03
2019-03-22T08:35:15.409Z,7.90
2019-03-22T08:37:52.433Z,7.63
2019-03-22T08:40:13.715Z,7.97
2019-03-22T08:42:42.006Z,7.80
2019-03-22T08:45:11.484Z,7.73
2019-03-22T08:47:40.048Z,8.27
2019-03-22T08:50:08.331Z,7.87
2019-03-22T08:52:36.580Z,7.90
2019-03-22T08:55:05.392Z,7.80
2019-03-22T08:57:33.628Z,8.93
2019-03-22T09:00:01.871Z,8.60
2019-03-22T09:02:30.100Z,8.73
2019-03-22T09:04:58.421Z,9.40
2019-03-22T09:07:26.731Z,9.20
2019-03-22T09:09:55.031Z,8.97
2019-03-22T09:12:23.276Z,8.90
2019-03-22T09:14:51.538Z,9.73
2019-03-22T09:17:19.952Z,9.80
2019-03-22T09:19:51.085Z,10.10
2019-03-22T09:22:18.154Z,9.77
2019-03-22T09:24:46.414Z,9.77
2019-03-22T09:27:14.641Z,10.40
2019-03-22T09:29:42.887Z,9.90
2019-03-22T09:32:11.123Z,10.23
2019-03-22T09:34:39.390Z,10.50
2019-03-22T09:37:08.991Z,10.50
2019-03-22T09:39:37.573Z,9.97
2019-03-22T09:42:05.823Z,10.30
2019-03-22T09:44:43.392Z,10.57
2019-03-22T09:47:04.094Z,10.13
2019-03-22T09:49:32.442Z,10.40
2019-03-22T09:52:00.745Z,10.33
2019-03-22T09:54:28.957Z,9.83
2019-03-22T09:56:57.290Z,10.10
2019-03-22T09:59:25.586Z,10.93
2019-03-22T10:01:53.881Z,11.77
2019-03-22T10:04:22.082Z,11.47
2019-03-22T10:06:50.416Z,10.33
2019-03-22T10:09:18.683Z,10.50
2019-03-22T10:11:46.924Z,10.17
2019-03-22T10:14:15.230Z,10.87
2019-03-22T10:16:43.581Z,9.80
2019-03-22T10:19:11.806Z,10.13
2019-03-22T10:21:40.103Z,10.10
2019-03-22T10:24:08.433Z,10.03
2019-03-22T10:26:36.718Z,10.13
2019-03-22T10:29:06.907Z,11.13
2019-03-22T10:31:37.511Z,10.47
2019-03-22T10:34:04.933Z,10.63
2019-03-22T10:36:33.232Z,9.93
2019-03-22T10:39:01.511Z,9.83
2019-03-22T10:41:29.725Z,9.83
2019-03-22T10:43:58.006Z,9.80
2019-03-22T10:46:26.216Z,9.70
2019-03-22T10:48:54.541Z,10.10
2019-03-22T10:51:22.812Z,9.50
2019-03-22T10:53:51.041Z,9.07
2019-03-22T10:56:19.373Z,10.57
2019-03-22T10:58:47.601Z,9.47
2019-03-22T11:01:15.931Z,9.63
2019-03-22T11:03:44.309Z,9.20
2019-03-22T11:06:13.194Z,9.70
2019-03-22T11:08:41.494Z,9.03
2019-03-22T11:11:09.798Z,9.20
2019-03-22T11:13:38.061Z,8.43
2019-03-22T11:16:06.363Z,8.87
2019-03-22T11:18:37.524Z,8.70
2019-03-22T11:21:05.617Z,8.30
2019-03-22T11:23:36.709Z,8.70
2019-03-22T11:26:05.010Z,8.20
2019-03-22T11:28:33.345Z,9.27
2019-03-22T11:31:05.020Z,8.70
2019-03-22T11:33:31.540Z,9.30
2019-03-22T11:35:59.761Z,8.70
2019-03-22T11:38:28.090Z,8.20
2019-03-22T11:40:56.393Z,8.67
2019-03-22T11:43:25.616Z,8.30
2019-03-22T11:45:54.126Z,8.90
2019-03-22T11:48:22.383Z,9.63
2019-03-22T11:50:50.685Z,9.30
2019-03-22T11:53:18.945Z,8.70
2019-03-22T11:55:47.250Z,8.20
2019-03-22T11:58:15.489Z,8.97
2019-03-22T12:00:43.831Z,8.80
2019-03-22T12:03:12.160Z,9.00
2019-03-22T12:05:40.817Z,8.70
2019-03-22T12:08:09.119Z,8.07
2019-03-22T12:10:37.381Z,8.53
2019-03-22T12:13:05.701Z,8.80
2019-03-22T12:15:33.961Z,9.00
2019-03-22T12:18:02.259Z,8.90
2019-03-22T12:20:30.589Z,9.43
2019-03-22T12:22:58.885Z,9.43
2019-03-22T12:25:27.723Z,9.57
2019-03-22T12:27:56.099Z,9.77
2019-03-22T12:30:24.358Z,8.87
2019-03-22T12:32:52.657Z,8.70
2019-03-22T12:35:20.986Z,9.53
2019-03-22T12:37:49.281Z,8.73
2019-03-22T12:40:20.898Z,8.77
2019-03-22T12:42:49.697Z,9.00
2019-03-22T12:45:22.126Z,9.03
2019-03-22T12:47:50.349Z,8.60
2019-03-22T12:50:18.684Z,8.67
2019-03-22T12:52:46.990Z,8.97
2019-03-22T12:55:15.294Z,8.87
2019-03-22T12:57:43.609Z,8.07
2019-03-22T13:00:13.613Z,8.10
2019-03-22T13:02:42.566Z,8.57
2019-03-22T13:05:11.143Z,7.53
2019-03-22T13:07:39.469Z,7.37
2019-03-22T13:10:08.970Z,7.20
2019-03-22T13:12:37.301Z,7.60
2019-03-22T13:15:05.998Z,7.63
2019-03-22T13:17:34.329Z,7.97
2019-03-22T13:20:02.738Z,7.40
2019-03-22T13:22:31.084Z,7.10
2019-03-22T13:24:59.318Z,7.00
2019-03-22T13:27:27.647Z,6.77
2019-03-22T13:29:55.876Z,6.30
2019-03-22T13:32:24.142Z,6.70
2019-03-22T13:34:52.370Z,7.30
2019-03-22T13:37:20.609Z,7.50
2019-03-22T13:39:48.937Z,8.00
2019-03-22T13:42:17.237Z,7.80
2019-03-22T13:44:45.578Z,8.43
2019-03-22T13:47:13.821Z,7.00
2019-03-22T13:49:42.074Z,7.90
2019-03-22T13:52:10.378Z,7.70
2019-03-22T13:54:38.717Z,7.07
2019-03-22T13:57:06.942Z,7.27
2019-03-22T13:59:35.270Z,6.60
2019-03-22T14:02:03.580Z,6.50
2019-03-22T14:04:31.900Z,6.57
2019-03-22T14:07:00.202Z,6.77
2019-03-22T14:09:28.438Z,7.10
2019-03-22T14:11:56.701Z,6.97
2019-03-22T14:14:25.188Z,6.43
2019-03-22T14:16:54.084Z,6.20
2019-03-22T14:19:22.507Z,7.37
2019-03-22T14:21:50.829Z,6.63
2019-03-22T14:24:19.065Z,6.80
2019-03-22T14:26:47.406Z,6.50
2019-03-22T14:29:15.710Z,5.70
2019-03-22T14:31:44.962Z,6.37
2019-03-22T14:34:13.333Z,6.20
2019-03-22T14:36:43.146Z,6.10
2019-03-22T14:39:11.569Z,6.40
2019-03-22T14:41:39.834Z,6.23
2019-03-22T14:44:08.049Z,6.47
2019-03-22T14:46:36.317Z,6.17
2019-03-22T14:49:04.635Z,6.13
2019-03-22T14:51:32.864Z,5.57
2019-03-22T14:54:01.211Z,6.47
2019-03-22T14:56:31.244Z,5.73
2019-03-22T14:58:59.586Z,5.83
2019-03-22T15:01:27.885Z,5.93
2019-03-22T15:03:56.231Z,4.90
2019-03-22T15:06:27.530Z,5.30
2019-03-22T15:08:56.815Z,4.70
2019-03-22T15:11:25.196Z,5.00
2019-03-22T15:13:58.095Z,5.07
2019-03-22T15:16:28.034Z,4.60
2019-03-22T15:19:04.335Z,3.90
2019-03-22T15:21:49.053Z,4.30
2019-03-22T15:24:33.820Z,3.87
2019-03-22T15:27:09.714Z,4.30
2019-03-22T15:29:56.349Z,4.37
2019-03-22T15:32:32.303Z,3.90
2019-03-22T15:35:20.572Z,4.30
2019-03-22T15:38:08.650Z,4.30
2019-03-22T15:40:37.087Z,4.60
2019-03-22T15:43:05.394Z,4.80
2019-03-22T15:45:33.722Z,4.73
2019-03-22T15:48:01.964Z,4.30
2019-03-22T15:50:30.280Z,4.70
2019-03-22T15:52:58.622Z,4.50
2019-03-22T15:55:26.921Z,4.40
2019-03-22T15:57:55.266Z,4.80
2019-03-22T16:00:23.793Z,4.90
2019-03-22T16:02:53.312Z,4.63
2019-03-22T16:05:21.606Z,5.53
2019-03-22T16:07:49.931Z,5.27
2019-03-22T16:10:18.265Z,5.20
2019-03-22T16:12:46.695Z,5.20
2019-03-22T16:15:14.976Z,5.13
2019-03-22T16:17:43.309Z,5.73
2019-03-22T16:20:12.713Z,5.20
2019-03-22T16:22:41.044Z,4.77
2019-03-22T16:25:10.146Z,4.87
2019-03-22T16:27:38.600Z,5.20
2019-03-22T16:30:09.878Z,5.60
2019-03-22T16:32:38.089Z,5.57
2019-03-22T16:35:07.110Z,6.00
2019-03-22T16:37:35.405Z,5.67
2019-03-22T16:40:04.804Z,7.00
2019-03-22T16:42:33.020Z,7.30
2019-03-22T16:45:01.407Z,7.47
2019-03-22T16:47:29.781Z,9.00
2019-03-22T16:49:58.280Z,8.37
2019-03-22T16:52:26.508Z,12.00
2019-03-22T16:54:55.080Z,8.40
2019-03-22T16:57:23.340Z,7.80
2019-03-22T16:59:51.745Z,6.90
2019-03-22T17:02:20.548Z,7.47
2019-03-22T17:04:49.101Z,6.27
2019-03-22T17:07:17.941Z,5.97
2019-03-22T17:09:46.281Z,6.07
2019-03-22T17:12:15.525Z,5.60
2019-03-22T17:14:43.866Z,5.13
2019-03-22T17:17:12.203Z,5.60
2019-03-22T17:19:40.800Z,5.60
2019-03-22T17:22:10.032Z,5.23
2019-03-22T17:24:39.162Z,5.17
2019-03-22T17:27:07.529Z,5.40
2019-03-22T17:29:36.260Z,5.80
2019-03-22T17:32:04.646Z,4.97
2019-03-22T17:34:32.922Z,5.10
2019-03-22T17:37:01.216Z,5.20
2019-03-22T17:39:29.806Z,5.53
2019-03-22T17:41:58.503Z,5.70
2019-03-22T17:44:26.728Z,6.07
2019-03-22T17:46:55.045Z,5.80
2019-03-22T17:49:23.927Z,6.47
2019-03-22T17:51:52.208Z,6.63
2019-03-22T17:54:20.634Z,6.20
2019-03-22T17:56:49.371Z,6.00
2019-03-22T17:59:17.982Z,7.40
2019-03-22T18:01:46.991Z,6.83
2019-03-22T18:04:23.904Z,6.40
2019-03-22T18:06:45.168Z,6.03
2019-03-22T18:09:13.738Z,6.27
2019-03-22T18:11:41.970Z,7.00
2019-03-22T18:14:10.286Z,7.10
2019-03-22T18:16:38.625Z,6.07
2019-03-22T18:19:06.945Z,6.40
2019-03-22T18:21:35.273Z,6.60
2019-03-22T18:24:04.121Z,6.93
2019-03-22T18:26:34.070Z,6.97
2019-03-22T18:29:02.445Z,7.27
2019-03-22T18:31:30.749Z,6.93
2019-03-22T18:33:59.100Z,7.37
2019-03-22T18:36:27.990Z,7.40
2019-03-22T18:38:56.291Z,7.43
2019-03-22T18:41:24.517Z,8.03
2019-03-22T18:43:52.772Z,8.00
2019-03-22T18:46:21.005Z,8.83
2019-03-22T18:48:49.256Z,7.20
2019-03-22T18:51:17.574Z,6.67
2019-03-22T18:53:45.846Z,7.40
2019-03-22T18:56:14.082Z,7.30
2019-03-22T18:58:42.342Z,7.73
2019-03-22T19:01:10.654Z,8.80
2019-03-22T19:03:39.028Z,9.43
2019-03-22T19:06:07.337Z,9.33
2019-03-22T19:08:35.599Z,8.90
2019-03-22T19:11:03.938Z,8.33
2019-03-22T19:13:32.602Z,8.50
2019-03-22T19:16:00.830Z,9.03
2019-03-22T19:18:29.099Z,8.33
2019-03-22T19:20:57.420Z,9.27
2019-03-22T19:23:25.718Z,8.90
2019-03-22T19:25:54.060Z,7.70
2019-03-22T19:28:22.910Z,7.13
2019-03-22T19:30:51.572Z,7.30
2019-03-22T19:33:19.894Z,7.17
2019-03-22T19:35:48.223Z,7.30
2019-03-22T19:38:16.947Z,7.50
2019-03-22T19:40:45.318Z,7.17
2019-03-22T19:43:13.533Z,7.23
2019-03-22T19:45:42.320Z,7.00
2019-03-22T19:48:10.746Z,8.13
2019-03-22T19:50:39.978Z,7.43
2019-03-22T19:53:08.474Z,8.30
2019-03-22T19:55:36.795Z,8.33
2019-03-22T19:58:05.022Z,8.47
2019-03-22T20:00:33.276Z,7.90
2019-03-22T20:03:01.694Z,9.00
2019-03-22T20:05:31.467Z,9.63
2019-03-22T20:08:00.246Z,9.27
2019-03-22T20:10:28.575Z,10.30
2019-03-22T20:12:56.886Z,9.60
2019-03-22T20:15:25.127Z,9.87
2019-03-22T20:17:53.958Z,8.83
2019-03-22T20:20:22.481Z,8.70
2019-03-22T20:22:51.109Z,9.37
2019-03-22T20:25:19.417Z,8.80
2019-03-22T20:27:48.074Z,8.53
2019-03-22T20:30:17.497Z,8.80
2019-03-22T20:32:46.454Z,8.47
2019-03-22T20:35:16.837Z,8.50
2019-03-22T20:37:44.909Z,8.93
2019-03-22T20:40:19.217Z,9.17
2019-03-22T20:42:47.708Z,12.03
2019-03-22T20:45:24.208Z,11.70
2019-03-22T20:47:46.595Z,11.47
2019-03-22T20:50:16.282Z,11.87
2019-03-22T20:52:44.945Z,11.27
2019-03-22T20:55:13.429Z,11.60
2019-03-22T20:57:41.788Z,11.50
2019-03-22T21:00:13.719Z,10.57
2019-03-22T21:02:42.063Z,9.50
2019-03-22T21:05:10.679Z,10.13
2019-03-22T21:07:39.086Z,9.30
2019-03-22T21:10:08.275Z,10.40
2019-03-22T21:12:36.787Z,10.90
2019-03-22T21:15:06.688Z,10.87
2019-03-22T21:17:35.008Z,10.90
2019-03-22T21:20:04.436Z,10.63
2019-03-22T21:22:32.811Z,11.40
2019-03-22T21:25:01.242Z,12.40
2019-03-22T21:27:29.552Z,13.20
2019-03-22T21:29:57.865Z,13.03
2019-03-22T21:32:26.166Z,11.87
2019-03-22T21:34:54.527Z,12.07
2019-03-22T21:37:22.825Z,12.37
2019-03-22T21:39:51.142Z,11.37
2019-03-22T21:42:19.556Z,10.30
2019-03-22T21:44:47.801Z,9.83
2019-03-22T21:47:16.148Z,10.17
2019-03-22T21:49:44.471Z,10.30
2019-03-22T21:52:12.814Z,11.80
2019-03-22T21:54:41.050Z,10.77
2019-03-22T21:57:09.326Z,10.17
2019-03-22T21:59:38.428Z,11.80
2019-03-22T22:02:06.770Z,10.93
2019-03-22T22:04:35.146Z,11.23
2019-03-22T22:07:03.484Z,12.73
2019-03-22T22:09:31.812Z,12.53
2019-03-22T22:12:00.151Z,12.23
2019-03-22T22:14:28.464Z,13.50
2019-03-22T22:16:56.846Z,12.97
2019-03-22T22:19:25.280Z,13.50
2019-03-22T22:21:53.518Z,12.57
2019-03-22T22:24:21.984Z,12.60
2019-03-22T22:26:50.317Z,12.40
2019-03-22T22:29:18.574Z,11.47
2019-03-22T22:31:46.881Z,10.23
2019-03-22T22:34:15.153Z,11.33
2019-03-22T22:36:43.574Z,11.00
2019-03-22T22:39:11.898Z,10.47
2019-03-22T22:41:40.135Z,10.53
2019-03-22T22:44:08.399Z,10.93
2019-03-22T22:46:36.701Z,11.27
2019-03-22T22:49:05.034Z,11.50
2019-03-22T22:51:33.270Z,12.00
2019-03-22T22:54:01.607Z,11.90
2019-03-22T22:56:29.829Z,11.37
2019-03-22T22:58:58.127Z,12.13
2019-03-22T23:01:26.498Z,11.10
2019-03-22T23:03:54.804Z,11.17
2019-03-22T23:06:23.145Z,11.90
2019-03-22T23:08:51.444Z,10.50
2019-03-22T23:11:19.782Z,11.40
2019-03-22T23:13:48.094Z,10.90
2019-03-22T23:16:16.443Z,10.30
2019-03-22T23:18:44.745Z,11.33
2019-03-22T23:21:13.085Z,11.27
2019-03-22T23:23:41.322Z,11.30
2019-03-22T23:26:09.600Z,10.90
2019-03-22T23:28:37.899Z,11.40
2019-03-22T23:31:06.245Z,11.40
2019-03-22T23:33:34.544Z,10.57
2019-03-22T23:36:02.888Z,11.47
2019-03-22T23:38:31.199Z,11.63
2019-03-22T23:40:59.449Z,11.37
2019-03-22T23:43:27.689Z,11.63
2019-03-22T23:45:55.961Z,11.60
2019-03-22T23:48:24.265Z,11.23
2019-03-22T23:50:52.533Z,11.33
2019-03-22T23:53:20.764Z,11.53
2019-03-22T23:55:49.001Z,11.37
2019-03-22T23:58:17.341Z,11.47
